createdAt,value
2017-10-19T00:00:44.163Z,25.50
2017-10-19T00:03:11.610Z,24.37
2017-10-19T00:05:39.063Z,25.35
2017-10-19T00:08:06.511Z,25.77
2017-10-19T00:10:33.990Z,25.60
2017-10-19T00:13:01.655Z,27.85
2017-10-19T00:15:29.198Z,31.23
2017-10-19T00:17:56.763Z,23.65
2017-10-19T00:20:24.206Z,25.60
2017-10-19T00:22:51.660Z,27.40
2017-10-19T00:25:19.133Z,26.60
2017-10-19T00:27:46.697Z,25.25
2017-10-19T00:30:14.246Z,30.12
2017-10-19T00:32:41.692Z,32.95
2017-10-19T00:35:09.149Z,29.87
2017-10-19T00:37:36.628Z,26.50
2017-10-19T00:40:04.068Z,21.57
2017-10-19T00:42:31.531Z,24.83
2017-10-19T00:44:59.081Z,27.35
2017-10-19T00:47:26.530Z,28.73
2017-10-19T00:49:53.971Z,24.40
2017-10-19T00:52:21.402Z,28.98
2017-10-19T00:54:48.862Z,25.42
2017-10-19T00:57:17.086Z,24.40
2017-10-19T00:59:44.631Z,27.00
2017-10-19T01:02:12.091Z,22.35
2017-10-19T01:04:39.549Z,26.17
2017-10-19T01:07:06.986Z,23.48
2017-10-19T01:09:34.430Z,22.53
2017-10-19T01:12:01.919Z,24.98
2017-10-19T01:14:29.378Z,20.77
2017-10-19T01:16:56.846Z,15.88
2017-10-19T01:19:24.267Z,22.77
2017-10-19T01:21:51.755Z,19.30
2017-10-19T01:24:19.178Z,18.15
2017-10-19T01:26:46.762Z,18.23
2017-10-19T01:29:14.198Z,19.30
2017-10-19T01:31:41.662Z,17.98
2017-10-19T01:34:09.118Z,18.55
2017-10-19T01:36:36.595Z,19.40
2017-10-19T01:39:04.041Z,16.20
2017-10-19T01:41:31.495Z,22.75
2017-10-19T01:43:58.946Z,18.40
2017-10-19T01:46:26.413Z,20.05
2017-10-19T01:48:53.852Z,20.17
2017-10-19T01:51:21.291Z,19.45
2017-10-19T01:53:48.739Z,21.73
2017-10-19T01:56:16.184Z,18.48
2017-10-19T01:58:44.403Z,19.10
2017-10-19T02:01:11.856Z,17.90
2017-10-19T02:03:39.327Z,21.35
2017-10-19T02:06:06.855Z,18.55
2017-10-19T02:08:34.301Z,22.90
2017-10-19T02:11:01.740Z,16.85
2017-10-19T02:13:29.975Z,17.40
2017-10-19T02:15:57.526Z,17.73
2017-10-19T02:18:24.973Z,17.37
2017-10-19T02:20:52.476Z,22.70
2017-10-19T02:23:20.702Z,21.97
2017-10-19T02:25:48.147Z,19.08
2017-10-19T02:28:15.605Z,19.58
2017-10-19T02:30:43.070Z,18.80
2017-10-19T02:33:10.514Z,17.40
2017-10-19T02:35:37.938Z,19.20
2017-10-19T02:38:05.386Z,17.45
2017-10-19T02:40:33.595Z,19.77
2017-10-19T02:43:01.175Z,21.62
2017-10-19T02:45:28.630Z,22.85
2017-10-19T02:47:56.081Z,23.77
2017-10-19T02:50:23.554Z,17.80
2017-10-19T02:52:51.006Z,20.30
2017-10-19T02:55:18.462Z,17.60
2017-10-19T02:57:45.909Z,17.17
2017-10-19T03:00:13.370Z,15.77
2017-10-19T03:02:40.815Z,21.80
2017-10-19T03:05:08.275Z,19.77
2017-10-19T03:07:35.715Z,20.40
2017-10-19T03:10:03.143Z,14.55
2017-10-19T03:12:31.375Z,18.23
2017-10-19T03:14:58.825Z,18.98
2017-10-19T03:17:26.267Z,17.45
2017-10-19T03:19:53.730Z,18.98
2017-10-19T03:22:21.205Z,19.23
2017-10-19T03:24:48.655Z,16.08
2017-10-19T03:27:16.107Z,16.25
2017-10-19T03:29:43.566Z,19.40
2017-10-19T03:32:10.999Z,24.80
2017-10-19T03:34:38.479Z,21.75
2017-10-19T03:37:05.942Z,16.00
2017-10-19T03:39:33.471Z,15.32
2017-10-19T03:42:00.954Z,19.73
2017-10-19T03:44:28.406Z,18.15
2017-10-19T03:46:55.870Z,21.37
2017-10-19T03:49:23.419Z,16.80
2017-10-19T03:51:50.855Z,16.20
2017-10-19T03:54:18.331Z,15.48
2017-10-19T03:56:45.755Z,19.60
2017-10-19T03:59:13.250Z,17.60
2017-10-19T04:01:40.682Z,18.00
2017-10-19T04:04:08.117Z,16.12
2017-10-19T04:06:35.554Z,17.75
2017-10-19T04:09:03.763Z,19.73
2017-10-19T04:11:31.191Z,16.80
2017-10-19T04:13:59.398Z,18.23
2017-10-19T04:16:26.843Z,15.57
2017-10-19T04:18:54.323Z,16.62
2017-10-19T04:21:21.906Z,18.98
2017-10-19T04:23:49.358Z,19.52
2017-10-19T04:26:16.904Z,18.62
2017-10-19T04:28:44.356Z,18.80
2017-10-19T04:31:11.823Z,20.67
2017-10-19T04:33:39.263Z,21.45
2017-10-19T04:36:06.790Z,22.65
2017-10-19T04:38:34.279Z,20.20
2017-10-19T04:41:01.750Z,19.95
2017-10-19T04:43:29.187Z,19.02
2017-10-19T04:45:56.630Z,16.70
2017-10-19T04:48:24.098Z,19.10
2017-10-19T04:50:51.584Z,22.87
2017-10-19T04:53:19.126Z,20.63
2017-10-19T04:55:46.579Z,22.60
2017-10-19T04:58:14.149Z,23.50
2017-10-19T05:00:41.699Z,19.25
2017-10-19T05:03:09.144Z,17.17
2017-10-19T05:05:36.602Z,19.83
2017-10-19T05:08:04.051Z,21.75
2017-10-19T05:10:31.487Z,24.48
2017-10-19T05:12:58.983Z,22.60
2017-10-19T05:15:26.417Z,20.15
2017-10-19T05:17:53.900Z,20.90
2017-10-19T05:20:21.331Z,22.67
2017-10-19T05:22:48.775Z,26.20
2017-10-19T05:25:16.267Z,23.02
2017-10-19T05:27:43.711Z,21.95
2017-10-19T05:30:11.162Z,21.55
2017-10-19T05:32:38.635Z,24.23
2017-10-19T05:35:06.067Z,25.90
2017-10-19T05:37:33.502Z,21.50
2017-10-19T05:40:00.946Z,27.40
2017-10-19T05:42:29.155Z,23.83
2017-10-19T05:44:56.602Z,23.25
2017-10-19T05:47:24.050Z,25.08
2017-10-19T05:49:51.482Z,27.20
2017-10-19T05:52:19.718Z,24.10
2017-10-19T05:54:47.177Z,27.08
2017-10-19T05:57:14.809Z,24.42
2017-10-19T05:59:42.265Z,25.30
2017-10-19T06:02:09.753Z,28.90
2017-10-19T06:04:37.223Z,27.80
2017-10-19T06:07:04.655Z,29.53
2017-10-19T06:09:32.107Z,22.62
2017-10-19T06:11:59.567Z,24.80
2017-10-19T06:14:27.024Z,28.10
2017-10-19T06:16:54.496Z,27.53
2017-10-19T06:19:21.939Z,25.67
2017-10-19T06:21:49.488Z,26.92
2017-10-19T06:24:16.921Z,22.37
2017-10-19T06:26:45.151Z,23.30
2017-10-19T06:29:12.601Z,23.20
2017-10-19T06:31:40.045Z,25.12
2017-10-19T06:34:07.487Z,27.55
2017-10-19T06:36:34.920Z,31.65
2017-10-19T06:39:02.362Z,34.47
2017-10-19T06:41:30.574Z,32.27
2017-10-19T06:43:58.070Z,36.15
2017-10-19T06:46:25.564Z,41.50
2017-10-19T06:48:53.011Z,51.17
2017-10-19T06:51:20.536Z,54.88
2017-10-19T06:53:48.092Z,66.53
2017-10-19T06:56:15.563Z,73.07
2017-10-19T06:58:43.004Z,73.40
2017-10-19T07:01:10.451Z,68.25
2017-10-19T07:03:38.000Z,64.93
2017-10-19T07:06:05.431Z,64.30
2017-10-19T07:08:33.682Z,66.97
2017-10-19T07:11:01.157Z,68.10
2017-10-19T07:13:28.607Z,70.55
2017-10-19T07:15:56.210Z,70.78
2017-10-19T07:18:23.679Z,78.50
2017-10-19T07:20:51.134Z,66.47
2017-10-19T07:23:18.598Z,63.65
2017-10-19T07:25:46.058Z,75.35
2017-10-19T07:28:13.603Z,76.75
2017-10-19T07:30:41.059Z,75.53
2017-10-19T07:33:08.495Z,69.40
2017-10-19T07:35:35.991Z,65.85
2017-10-19T07:38:04.432Z,64.30
2017-10-19T07:40:31.994Z,56.20
2017-10-19T07:42:59.470Z,54.67
2017-10-19T07:45:27.004Z,48.70
2017-10-19T07:47:54.435Z,44.40
2017-10-19T07:50:21.959Z,41.08
2017-10-19T07:52:49.402Z,37.17
2017-10-19T07:55:16.871Z,44.20
2017-10-19T07:57:45.817Z,43.30
2017-10-19T08:00:13.271Z,42.75
2017-10-19T08:02:40.723Z,40.40
2017-10-19T08:05:08.155Z,41.43
2017-10-19T08:07:36.387Z,39.83
2017-10-19T08:10:03.832Z,43.40
2017-10-19T08:12:31.272Z,38.75
2017-10-19T08:14:58.707Z,38.83
2017-10-19T08:17:26.166Z,36.13
2017-10-19T08:19:53.607Z,37.05
2017-10-19T08:22:21.057Z,33.78
2017-10-19T08:24:49.290Z,37.28
2017-10-19T08:27:16.750Z,38.33
2017-10-19T08:29:44.218Z,31.77
2017-10-19T08:32:11.674Z,32.13
2017-10-19T08:34:39.128Z,31.35
2017-10-19T08:37:06.572Z,34.58
2017-10-19T08:39:34.028Z,32.07
2017-10-19T08:42:01.525Z,33.42
2017-10-19T08:44:29.737Z,67.95
2017-10-19T08:46:57.174Z,38.42
2017-10-19T08:49:24.670Z,30.80
2017-10-19T08:51:52.109Z,34.80
2017-10-19T08:54:19.550Z,35.80
2017-10-19T08:56:47.043Z,31.27
2017-10-19T08:59:14.542Z,29.65
2017-10-19T09:01:41.959Z,36.50
2017-10-19T09:04:09.402Z,33.35
2017-10-19T09:06:36.850Z,32.30
2017-10-19T09:09:04.299Z,64.47
2017-10-19T09:11:31.783Z,34.42
2017-10-19T09:13:59.260Z,32.17
2017-10-19T09:16:26.802Z,29.92
2017-10-19T09:18:54.239Z,33.25
2017-10-19T09:21:21.715Z,33.42
2017-10-19T09:23:49.267Z,32.20
2017-10-19T09:26:16.707Z,35.77
2017-10-19T09:28:44.190Z,30.67
2017-10-19T09:31:11.659Z,34.58
2017-10-19T09:33:39.092Z,32.70
2017-10-19T09:36:06.644Z,36.47
2017-10-19T09:38:34.231Z,31.80
2017-10-19T09:41:01.709Z,32.33
2017-10-19T09:43:29.234Z,36.28
2017-10-19T09:45:56.700Z,34.95
2017-10-19T09:48:24.138Z,33.42
2017-10-19T09:50:51.626Z,37.22
2017-10-19T09:53:19.064Z,39.55
2017-10-19T09:55:46.526Z,34.53
2017-10-19T09:58:13.974Z,35.63
2017-10-19T10:00:41.444Z,40.33
2017-10-19T10:03:08.986Z,36.60
2017-10-19T10:05:36.446Z,38.13
2017-10-19T10:08:04.034Z,38.85
2017-10-19T10:10:31.562Z,40.20
2017-10-19T10:12:59.009Z,43.58
2017-10-19T10:15:26.450Z,40.17
2017-10-19T10:17:53.945Z,42.57
2017-10-19T10:20:21.386Z,40.90
2017-10-19T10:22:48.847Z,42.70
2017-10-19T10:25:16.300Z,41.20
2017-10-19T10:27:43.739Z,43.25
2017-10-19T10:30:11.259Z,44.85
2017-10-19T10:32:39.595Z,43.95
2017-10-19T10:35:07.073Z,42.08
2017-10-19T10:37:34.506Z,45.00
2017-10-19T10:40:01.956Z,43.47
2017-10-19T10:42:29.421Z,45.75
2017-10-19T10:44:56.967Z,44.20
2017-10-19T10:47:25.158Z,44.75
2017-10-19T10:49:54.941Z,47.22
2017-10-19T10:52:22.379Z,45.33
2017-10-19T10:54:49.875Z,45.90
2017-10-19T10:57:17.331Z,44.67
2017-10-19T10:59:44.785Z,42.92
2017-10-19T11:02:12.324Z,44.88
2017-10-19T11:04:39.778Z,44.90
2017-10-19T11:07:07.279Z,46.78
2017-10-19T11:09:34.725Z,45.25
2017-10-19T11:12:02.244Z,44.80
2017-10-19T11:14:29.682Z,42.97
2017-10-19T11:16:57.915Z,42.80
2017-10-19T11:19:25.403Z,43.45
2017-10-19T11:21:53.641Z,44.80
2017-10-19T11:24:21.099Z,44.75
2017-10-19T11:26:48.662Z,41.63
2017-10-19T11:29:16.108Z,42.67
2017-10-19T11:31:43.596Z,43.00
2017-10-19T11:34:11.811Z,43.35
2017-10-19T11:36:39.254Z,45.45
2017-10-19T11:39:06.696Z,45.00
2017-10-19T11:41:35.031Z,46.78
2017-10-19T11:44:02.475Z,43.83
2017-10-19T11:46:29.915Z,47.92
2017-10-19T11:48:57.368Z,45.42
2017-10-19T11:51:24.843Z,47.55
2017-10-19T11:53:52.310Z,44.13
2017-10-19T11:56:19.735Z,47.72
2017-10-19T11:58:47.162Z,47.65
2017-10-19T12:01:15.371Z,45.12
2017-10-19T12:03:42.816Z,47.10
2017-10-19T12:06:10.255Z,48.72
2017-10-19T12:08:40.562Z,48.80
2017-10-19T12:11:08.899Z,48.30
2017-10-19T12:13:36.355Z,53.00
2017-10-19T12:16:03.792Z,49.50
2017-10-19T12:18:31.351Z,50.03
2017-10-19T12:20:58.830Z,53.25
2017-10-19T12:23:26.292Z,50.00
2017-10-19T12:25:53.820Z,53.33
2017-10-19T12:28:21.271Z,52.78
2017-10-19T12:30:48.872Z,53.47
2017-10-19T12:33:18.134Z,50.83
2017-10-19T12:35:45.594Z,54.20
2017-10-19T12:38:13.051Z,52.47
2017-10-19T12:40:40.486Z,55.08
2017-10-19T12:43:07.936Z,53.23
2017-10-19T12:45:35.430Z,52.22
2017-10-19T12:48:02.906Z,54.33
2017-10-19T12:50:30.358Z,52.58
2017-10-19T12:52:57.824Z,53.13
2017-10-19T12:55:26.761Z,54.05
2017-10-19T12:57:54.235Z,56.53
2017-10-19T13:00:21.675Z,53.20
2017-10-19T13:02:49.166Z,52.35
2017-10-19T13:05:16.715Z,52.50
2017-10-19T13:07:44.266Z,51.63
2017-10-19T13:10:11.709Z,54.17
2017-10-19T13:12:39.306Z,53.60
2017-10-19T13:15:06.840Z,52.58
2017-10-19T13:17:34.274Z,52.20
2017-10-19T13:20:01.709Z,52.93
2017-10-19T13:22:29.957Z,49.67
2017-10-19T13:24:57.395Z,50.08
2017-10-19T13:27:24.848Z,48.55
2017-10-19T13:29:52.292Z,50.17
2017-10-19T13:32:19.731Z,49.97
2017-10-19T13:34:47.208Z,51.50
2017-10-19T13:37:14.647Z,47.95
2017-10-19T13:39:42.161Z,50.22
2017-10-19T13:42:09.632Z,50.00
2017-10-19T13:44:37.070Z,51.75
2017-10-19T13:47:04.523Z,50.20
2017-10-19T13:49:32.066Z,47.62
2017-10-19T13:51:59.543Z,50.80
2017-10-19T13:54:27.084Z,50.10
2017-10-19T13:56:54.531Z,51.85
2017-10-19T13:59:22.009Z,50.28
2017-10-19T14:01:49.559Z,51.35
2017-10-19T14:04:17.029Z,50.17
2017-10-19T14:06:44.517Z,49.53
2017-10-19T14:09:12.777Z,49.63
2017-10-19T14:11:40.334Z,47.83
2017-10-19T14:14:07.818Z,49.40
2017-10-19T14:16:35.316Z,47.22
2017-10-19T14:19:02.798Z,48.80
2017-10-19T14:21:30.232Z,47.28
2017-10-19T14:23:57.679Z,45.60
2017-10-19T14:26:25.118Z,46.28
2017-10-19T14:28:52.556Z,49.88
2017-10-19T14:31:20.885Z,46.87
2017-10-19T14:33:48.318Z,50.42
2017-10-19T14:36:15.767Z,48.67
2017-10-19T14:38:43.243Z,50.28
2017-10-19T14:41:10.698Z,53.47
2017-10-19T14:43:39.182Z,49.83
2017-10-19T14:46:06.718Z,50.20
2017-10-19T14:48:34.162Z,52.13
2017-10-19T14:51:01.803Z,49.40
2017-10-19T14:53:30.031Z,49.65
2017-10-19T14:55:57.467Z,50.65
2017-10-19T14:58:24.927Z,50.47
2017-10-19T15:00:52.383Z,52.22
2017-10-19T15:03:19.835Z,51.92
2017-10-19T15:05:47.318Z,52.25
2017-10-19T15:08:14.800Z,51.20
2017-10-19T15:10:43.066Z,51.15
2017-10-19T15:13:10.534Z,53.47
2017-10-19T15:15:38.729Z,50.60
2017-10-19T15:18:06.200Z,53.92
2017-10-19T15:20:33.794Z,52.07
2017-10-19T15:23:01.307Z,51.63
2017-10-19T15:25:28.775Z,52.85
2017-10-19T15:27:56.316Z,54.70
2017-10-19T15:30:23.778Z,54.10
2017-10-19T15:32:51.351Z,52.72
2017-10-19T15:35:18.807Z,56.33
2017-10-19T15:37:46.255Z,52.80
2017-10-19T15:40:13.706Z,53.83
2017-10-19T15:42:41.146Z,54.20
2017-10-19T15:45:08.639Z,53.33
2017-10-19T15:47:36.375Z,54.15
2017-10-19T15:50:03.971Z,53.20
2017-10-19T15:52:31.407Z,53.55
2017-10-19T15:54:58.869Z,55.15
2017-10-19T15:57:26.323Z,55.83
2017-10-19T15:59:53.774Z,58.20
2017-10-19T16:02:21.225Z,58.87
2017-10-19T16:04:49.527Z,53.85
2017-10-19T16:07:17.052Z,55.97
2017-10-19T16:09:44.468Z,54.00
2017-10-19T16:12:12.712Z,54.65
2017-10-19T16:14:40.146Z,55.88
2017-10-19T16:17:07.604Z,56.60
2017-10-19T16:19:35.039Z,57.03
2017-10-19T16:22:02.527Z,54.23
2017-10-19T16:24:29.999Z,61.08
2017-10-19T16:26:57.442Z,56.42
2017-10-19T16:29:24.898Z,58.00
2017-10-19T16:31:52.463Z,53.20
2017-10-19T16:34:19.907Z,55.42
2017-10-19T16:36:47.374Z,55.80
2017-10-19T16:39:14.875Z,56.72
2017-10-19T16:41:42.315Z,55.28
2017-10-19T16:44:09.823Z,56.15
2017-10-19T16:46:37.282Z,56.25
2017-10-19T16:49:05.265Z,60.67
2017-10-19T16:51:32.738Z,55.42
2017-10-19T16:54:00.236Z,53.28
2017-10-19T16:56:27.741Z,56.03
2017-10-19T16:58:55.178Z,54.65
2017-10-19T17:01:22.634Z,52.75
2017-10-19T17:03:50.120Z,54.38
2017-10-19T17:06:17.555Z,61.00
2017-10-19T17:08:44.991Z,55.88
2017-10-19T17:11:12.474Z,57.70
2017-10-19T17:13:39.924Z,57.77
2017-10-19T17:16:07.606Z,56.85
2017-10-19T17:18:35.149Z,61.10
2017-10-19T17:21:02.607Z,57.28
2017-10-19T17:23:30.046Z,58.17
2017-10-19T17:25:58.636Z,56.00
2017-10-19T17:28:26.076Z,60.17
2017-10-19T17:30:53.746Z,58.47
2017-10-19T17:33:21.169Z,59.13
2017-10-19T17:35:48.691Z,59.97
2017-10-19T17:38:16.120Z,59.25
2017-10-19T17:40:43.564Z,58.00
2017-10-19T17:43:10.994Z,56.60
2017-10-19T17:45:38.432Z,60.05
2017-10-19T17:48:06.787Z,64.37
2017-10-19T17:50:34.246Z,65.55
2017-10-19T17:53:01.881Z,64.37
2017-10-19T17:55:29.334Z,65.20
2017-10-19T17:57:56.784Z,65.95
2017-10-19T18:00:24.245Z,66.12
2017-10-19T18:02:51.912Z,66.43
2017-10-19T18:05:19.360Z,67.07
2017-10-19T18:07:46.820Z,65.78
2017-10-19T18:10:14.373Z,71.10
2017-10-19T18:12:41.799Z,68.43
2017-10-19T18:15:09.247Z,68.82
2017-10-19T18:17:37.499Z,73.40
2017-10-19T18:20:05.038Z,74.40
2017-10-19T18:22:32.571Z,74.60
2017-10-19T18:25:00.027Z,76.30
2017-10-19T18:27:27.514Z,77.30
2017-10-19T18:29:54.938Z,77.53
2017-10-19T18:32:22.405Z,81.57
2017-10-19T18:34:49.851Z,80.87
2017-10-19T18:37:17.294Z,83.70
2017-10-19T18:39:44.773Z,81.65
2017-10-19T18:42:12.251Z,89.50
2017-10-19T18:44:39.686Z,87.35
2017-10-19T18:47:07.236Z,92.30
2017-10-19T18:49:34.671Z,90.15
2017-10-19T18:52:02.113Z,85.17
2017-10-19T18:54:30.336Z,96.00
2017-10-19T18:56:57.792Z,95.28
2017-10-19T18:59:25.268Z,97.07
2017-10-19T19:01:52.725Z,100.82
2017-10-19T19:04:20.183Z,94.05
2017-10-19T19:06:47.746Z,93.97
2017-10-19T19:09:15.201Z,97.45
2017-10-19T19:11:42.651Z,102.87
2017-10-19T19:14:10.090Z,99.60
2017-10-19T19:16:37.566Z,91.47
2017-10-19T19:19:05.132Z,92.15
2017-10-19T19:21:32.588Z,96.82
2017-10-19T19:24:00.134Z,97.28
2017-10-19T19:26:27.687Z,96.93
2017-10-19T19:28:55.172Z,99.78
2017-10-19T19:31:22.619Z,94.15
2017-10-19T19:33:50.087Z,100.28
2017-10-19T19:36:17.539Z,95.72
2017-10-19T19:38:44.986Z,95.10
2017-10-19T19:41:13.207Z,94.15
2017-10-19T19:43:40.749Z,91.63
2017-10-19T19:46:08.195Z,100.93
2017-10-19T19:48:35.650Z,103.10
2017-10-19T19:51:03.102Z,101.15
2017-10-19T19:53:30.563Z,108.83
2017-10-19T19:55:58.009Z,96.30
2017-10-19T19:58:25.508Z,100.25
2017-10-19T20:00:52.967Z,108.82
2017-10-19T20:03:20.407Z,102.03
2017-10-19T20:05:51.294Z,110.20
2017-10-19T20:08:18.842Z,113.20
2017-10-19T20:10:46.279Z,121.43
2017-10-19T20:13:13.730Z,116.37
2017-10-19T20:15:41.287Z,120.57
2017-10-19T20:18:09.618Z,117.50
2017-10-19T20:20:37.071Z,114.05
2017-10-19T20:23:04.590Z,111.70
2017-10-19T20:25:32.042Z,114.77
2017-10-19T20:27:59.603Z,114.50
2017-10-19T20:30:27.140Z,124.00
2017-10-19T20:32:54.615Z,117.25
2017-10-19T20:35:22.070Z,115.37
2017-10-19T20:37:49.527Z,115.97
2017-10-19T20:40:16.991Z,121.18
2017-10-19T20:42:44.539Z,115.47
2017-10-19T20:45:11.991Z,122.72
2017-10-19T20:47:39.447Z,123.70
2017-10-19T20:50:06.904Z,125.72
2017-10-19T20:52:34.363Z,118.15
2017-10-19T20:55:01.820Z,121.53
2017-10-19T20:57:29.258Z,125.47
2017-10-19T20:59:56.867Z,120.72
2017-10-19T21:02:25.209Z,119.45
2017-10-19T21:04:52.659Z,115.57
2017-10-19T21:07:20.126Z,124.62
2017-10-19T21:09:47.597Z,125.50
2017-10-19T21:12:15.140Z,125.07
2017-10-19T21:14:42.618Z,127.05
2017-10-19T21:17:10.164Z,120.63
2017-10-19T21:19:37.602Z,126.72
2017-10-19T21:22:05.046Z,122.00
2017-10-19T21:24:32.515Z,116.40
2017-10-19T21:26:59.997Z,117.70
2017-10-19T21:29:27.451Z,118.95
2017-10-19T21:31:54.907Z,120.93
2017-10-19T21:34:22.367Z,122.00
2017-10-19T21:36:49.837Z,116.87
2017-10-19T21:39:17.282Z,120.18
2017-10-19T21:41:44.739Z,112.80
2017-10-19T21:44:12.199Z,127.53
2017-10-19T21:46:39.654Z,122.68
2017-10-19T21:49:07.114Z,114.05
2017-10-19T21:51:34.587Z,130.65
2017-10-19T21:54:03.567Z,129.25
2017-10-19T21:56:31.021Z,117.47
2017-10-19T21:58:58.496Z,118.10
2017-10-19T22:01:25.963Z,117.30
2017-10-19T22:03:53.390Z,120.30
2017-10-19T22:06:20.871Z,118.15
2017-10-19T22:08:48.372Z,126.32
2017-10-19T22:11:15.857Z,120.97
2017-10-19T22:13:43.319Z,119.30
2017-10-19T22:16:10.776Z,121.32
2017-10-19T22:18:38.224Z,120.15
2017-10-19T22:21:05.671Z,118.22
2017-10-19T22:23:33.247Z,118.05
2017-10-19T22:26:00.781Z,107.55
2017-10-19T22:28:28.222Z,109.43
2017-10-19T22:30:55.699Z,111.33
2017-10-19T22:33:23.145Z,122.57
2017-10-19T22:35:50.597Z,109.03
2017-10-19T22:38:18.071Z,107.40
2017-10-19T22:40:45.630Z,112.57
2017-10-19T22:43:13.188Z,110.10
2017-10-19T22:45:40.694Z,101.30
2017-10-19T22:48:08.208Z,109.87
2017-10-19T22:50:35.642Z,109.37
2017-10-19T22:53:03.106Z,110.77
2017-10-19T22:55:30.550Z,106.15
2017-10-19T22:57:58.004Z,114.50
2017-10-19T23:00:25.442Z,109.12
2017-10-19T23:02:52.935Z,99.62
2017-10-19T23:05:20.391Z,107.32
2017-10-19T23:07:47.850Z,106.80
2017-10-19T23:10:15.407Z,112.73
2017-10-19T23:12:42.956Z,106.35
2017-10-19T23:15:10.514Z,100.70
2017-10-19T23:17:37.975Z,100.50
2017-10-19T23:20:05.433Z,97.68
2017-10-19T23:22:32.895Z,96.00
2017-10-19T23:25:00.347Z,95.05
2017-10-19T23:27:27.814Z,105.57
2017-10-19T23:29:55.261Z,100.47
2017-10-19T23:32:22.728Z,96.32
2017-10-19T23:34:50.174Z,101.10
2017-10-19T23:37:17.735Z,98.15
2017-10-19T23:39:45.196Z,101.47
2017-10-19T23:42:12.664Z,93.87
2017-10-19T23:44:40.215Z,98.43
2017-10-19T23:47:07.668Z,98.32
2017-10-19T23:49:35.122Z,97.37
2017-10-19T23:52:02.646Z,98.62
2017-10-19T23:54:30.105Z,102.97
2017-10-19T23:56:57.691Z,102.13
2017-10-19T23:59:25.134Z,102.62
